首页
METAR-TAF:

METAR-TAF

机场 :

洛里昂, 法国

纬度: 47-46N, 经度: 003-27W, 海拔: 52米

当前天气观测

该预报发布于37分钟前的14:30 UTC
风速16节,风向西
温度 17°C
湿度 68%
气压 1005 hPa
能见度10公里或以上
多云层高于3000英尺

METAR: LFRH 051430Z AUTO 26016KT 9999 BKN030 17/11 Q1005 BECMG 29015G25KT BKN010

时间: 17:07 (15:07 UTC)

预报

该预报发布于4小时和7分钟前的11:00 UTC
预报有效从05日的 12点(UTC)到 06日的 12点(UTC)
风速15节,风向西转西北,有时为25节阵风
能见度10公里或以上
多云层高于2500英尺
成为
从 05日的 16点(UTC)到 05日的 18点(UTC)
多云层高于1000英尺
短暂存在
从 05日的 18点(UTC)到 05日的 21点(UTC)
能見度: 4900
小雨
成为
从 05日的 21点(UTC)到 05日的 24点(UTC)
风速10节,风向西
散云层高于2000英尺
成为
从 06日的 07点(UTC)到 06日的 09点(UTC)
能见度10公里或以上
1500米以下无云,无积雨云
成为
从 06日的 09点(UTC)到 06日的 11点(UTC)
风速15节,风向西转西北,有时为25节阵风

TAF: LFRH 051100Z 0512/0612 29015G25KT 9999 BKN025 BECMG 0516/0518 BKN010 TEMPO 0518/0521 4900 -RA BECMG 0521/0524 28010KT SCT020 BECMG 0607/0609 CAVOK BECMG 0609/0611 29015G25KT

超过4000个机场的气象观测和天气预报(METAR&TAF报告)。

可查询的气象台以黄色和红色小点在地图上表示。

将鼠标移到小点上方,可查看气象台名称。

然后点击查看天气观测和预报。

如需切换地图:点击带黑十字的绿色按钮放大地图;点击带横线的绿色按钮缩小地图;或者点击绿色箭头查看邻近地区的地图。


METAR-TAF: